Time,TemperatureF,DewpointF,PressureIn,WindDirection,WindDirectionDegrees,WindSpeedMPH,WindSpeedGustMPH,Humidity,HourlyPrecipIn,Conditions,Clouds,dailyrainin,SoftwareType,DateUTC
2013-08-27 00:10:00,71.7,65.0,30.13,WNW,301,0.0,1.0,80,0.00,,,0.00,weatherlink.com 1.10,2013-08-27 04:10:00,
2013-08-27 00:26:00,70.1,65.0,30.13,NW,310,1.0,2.0,83,0.00,,,0.00,weatherlink.com 1.10,2013-08-27 04:26:00,
2013-08-27 00:41:00,69.1,65.0,30.13,NW,311,0.0,1.0,85,0.00,,,0.00,weatherlink.com 1.10,2013-08-27 04:41:00,
2013-08-27 00:56:00,68.7,64.0,30.13,NW,311,1.0,1.0,85,0.00,,,0.00,weatherlink.com 1.10,2013-08-27 04:56:00,
2013-08-27 01:11:00,68.8,65.0,30.12,NW,307,1.0,1.0,86,0.00,,,0.00,weatherlink.com 1.10,2013-08-27 05:11:00,
2013-08-27 01:26:00,69.0,65.0,30.12,NW,307,0.0,1.0,87,0.00,,,0.00,weatherlink.com 1.10,2013-08-27 05:26:00,
2013-08-27 01:41:00,69.2,65.0,30.11,NW,304,0.0,1.0,87,0.00,,,0.00,weatherlink.com 1.10,2013-08-27 05:41:00,
2013-08-27 01:56:00,69.6,66.0,30.11,West,275,0.0,2.0,88,0.00,,,0.00,weatherlink.com 1.10,2013-08-27 05:56:00,
2013-08-27 02:11:00,69.9,66.0,30.10,SW,229,0.0,1.0,88,0.00,,,0.00,weatherlink.com 1.10,2013-08-27 06:11:00,
2013-08-27 02:26:00,69.8,66.0,30.10,WNW,297,1.0,1.0,88,0.00,,,0.00,weatherlink.com 1.10,2013-08-27 06:26:00,
2013-08-27 02:41:00,69.3,66.0,30.10,NW,311,0.0,2.0,89,0.00,,,0.00,weatherlink.com 1.10,2013-08-27 06:41:00,
2013-08-27 02:56:00,69.1,66.0,30.09,WNW,292,0.0,1.0,90,0.00,,,0.00,weatherlink.com 1.10,2013-08-27 06:56:00,
2013-08-27 03:11:00,69.2,66.0,30.08,WNW,303,0.0,1.0,90,0.00,,,0.00,weatherlink.com 1.10,2013-08-27 07:11:00,
2013-08-27 03:26:00,69.2,66.0,30.09,WNW,298,0.0,1.0,89,0.00,,,0.00,weatherlink.com 1.10,2013-08-27 07:26:00,
2013-08-27 03:41:00,68.9,66.0,30.08,WNW,298,0.0,0.0,90,0.00,,,0.00,weatherlink.com 1.10,2013-08-27 07:41:00,
2013-08-27 03:56:00,68.5,66.0,30.08,WNW,301,0.0,0.0,91,0.00,,,0.00,weatherlink.com 1.10,2013-08-27 07:56:00,
2013-08-27 04:11:00,67.9,66.0,30.08,NW,322,0.0,0.0,92,0.00,,,0.00,weatherlink.com 1.10,2013-08-27 08:11:00,
2013-08-27 04:26:00,67.6,66.0,30.08,NW,322,0.0,0.0,93,0.00,,,0.00,weatherlink.com 1.10,2013-08-27 08:26:00,
2013-08-27 04:41:00,67.6,66.0,30.08,NW,323,0.0,0.0,93,0.00,,,0.00,weatherlink.com 1.10,2013-08-27 08:41:00,
2013-08-27 04:56:00,67.7,66.0,30.07,WNW,302,0.0,0.0,94,0.00,,,0.00,weatherlink.com 1.10,2013-08-27 08:56:00,
2013-08-27 05:11:00,67.6,66.0,30.07,WNW,302,0.0,0.0,94,0.00,,,0.00,weatherlink.com 1.10,2013-08-27 09:11:00,
2013-08-27 05:26:00,67.4,66.0,30.07,WNW,302,0.0,0.0,94,0.00,,,0.00,weatherlink.com 1.10,2013-08-27 09:26:00,
2013-08-27 05:41:00,67.2,66.0,30.07,WNW,302,0.0,0.0,94,0.00,,,0.00,weatherlink.com 1.10,2013-08-27 09:41:00,
2013-08-27 05:56:00,67.1,65.0,30.07,WNW,302,0.0,0.0,94,0.00,,,0.00,weatherlink.com 1.10,2013-08-27 09:56:00,
2013-08-27 06:11:00,67.1,65.0,30.07,WNW,302,0.0,0.0,94,0.00,,,0.00,weatherlink.com 1.10,2013-08-27 10:11:00,
2013-08-27 06:26:00,67.0,65.0,30.07,WNW,302,0.0,0.0,94,0.00,,,0.00,weatherlink.com 1.10,2013-08-27 10:26:00,
2013-08-27 06:41:00,67.4,65.0,30.07,WNW,302,0.0,0.0,93,0.00,,,0.00,weatherlink.com 1.10,2013-08-27 10:41:00,
2013-08-27 06:56:00,68.2,66.0,30.07,WNW,295,0.0,1.0,93,0.00,,,0.00,weatherlink.com 1.10,2013-08-27 10:56:00,
2013-08-27 07:11:00,68.5,66.0,30.07,West,260,0.0,1.0,92,0.00,,,0.00,weatherlink.com 1.10,2013-08-27 11:11:00,
2013-08-27 07:26:00,69.0,66.0,30.08,West,262,0.0,0.0,91,0.00,,,0.00,weatherlink.com 1.10,2013-08-27 11:26:00,
2013-08-27 07:41:00,70.3,67.0,30.08,WSW,244,0.0,1.0,89,0.00,,,0.00,weatherlink.com 1.10,2013-08-27 11:41:00,
2013-08-27 07:56:00,70.6,67.0,30.08,WNW,286,0.0,1.0,87,0.00,,,0.00,weatherlink.com 1.10,2013-08-27 11:56:00,
2013-08-27 08:11:00,71.4,67.0,30.07,West,263,0.0,1.0,85,0.00,,,0.00,weatherlink.com 1.10,2013-08-27 12:11:00,
2013-08-27 08:26:00,73.0,68.0,30.07,SW,236,0.0,2.0,83,0.00,,,0.00,weatherlink.com 1.10,2013-08-27 12:26:00,
2013-08-27 08:41:00,74.5,68.0,30.07,NE,39,1.0,2.0,80,0.00,,,0.00,weatherlink.com 1.10,2013-08-27 12:41:00,
2013-08-27 08:56:00,75.5,67.0,30.07,NNW,335,2.0,3.0,76,0.00,,,0.00,weatherlink.com 1.10,2013-08-27 12:56:00,
2013-08-27 09:11:00,76.4,67.0,30.08,SW,236,2.0,4.0,73,0.00,,,0.00,weatherlink.com 1.10,2013-08-27 13:11:00,
2013-08-27 09:26:00,77.6,68.0,30.08,West,267,0.0,3.0,71,0.00,,,0.00,weatherlink.com 1.10,2013-08-27 13:26:00,
2013-08-27 09:42:00,78.0,67.0,30.08,SSW,210,3.0,5.0,69,0.00,,,0.00,weatherlink.com 1.10,2013-08-27 13:42:00,
2013-08-27 09:57:00,79.2,67.0,30.08,South,191,0.0,2.0,67,0.00,,,0.00,weatherlink.com 1.10,2013-08-27 13:57:00,
2013-08-27 10:12:00,79.1,67.0,30.07,SW,236,3.0,5.0,67,0.00,,,0.00,weatherlink.com 1.10,2013-08-27 14:12:00,
2013-08-27 10:27:00,79.0,67.0,30.07,SW,218,5.0,8.0,66,0.00,,,0.00,weatherlink.com 1.10,2013-08-27 14:27:00,
2013-08-27 10:42:00,79.4,67.0,30.07,SW,232,4.0,6.0,66,0.00,,,0.00,weatherlink.com 1.10,2013-08-27 14:42:00,
2013-08-27 10:57:00,79.9,66.0,30.06,SSW,201,2.0,6.0,62,0.00,,,0.00,weatherlink.com 1.10,2013-08-27 14:57:00,
2013-08-27 11:12:00,80.6,66.0,30.06,SW,217,4.0,6.0,61,0.00,,,0.00,weatherlink.com 1.10,2013-08-27 15:12:00,
2013-08-27 11:28:00,80.9,65.0,30.06,SW,226,2.0,7.0,58,0.00,,,0.00,weatherlink.com 1.10,2013-08-27 15:28:00,
2013-08-27 11:42:00,80.6,68.0,30.05,SSW,204,5.0,9.0,65,0.00,,,0.00,weatherlink.com 1.10,2013-08-27 15:42:00,
2013-08-27 11:57:00,80.1,67.0,30.04,SSW,201,8.0,11.0,65,0.00,,,0.00,weatherlink.com 1.10,2013-08-27 15:57:00,
2013-08-27 12:12:00,80.4,67.0,30.03,SW,218,10.0,10.0,63,0.00,,,0.00,weatherlink.com 1.10,2013-08-27 16:12:00,
2013-08-27 12:27:00,81.0,67.0,30.04,SW,221,5.0,7.0,62,0.00,,,0.00,weatherlink.com 1.10,2013-08-27 16:27:00,
2013-08-27 12:42:00,81.4,67.0,30.03,SW,223,5.0,8.0,62,0.00,,,0.00,weatherlink.com 1.10,2013-08-27 16:42:00,
2013-08-27 12:57:00,81.9,68.0,30.03,SW,231,3.0,8.0,63,0.00,,,0.00,weatherlink.com 1.10,2013-08-27 16:57:00,
2013-08-27 13:12:00,82.1,68.0,30.02,SW,226,5.0,7.0,63,0.00,,,0.00,weatherlink.com 1.10,2013-08-27 17:12:00,
2013-08-27 13:27:00,82.4,67.0,30.02,WSW,239,5.0,9.0,60,0.00,,,0.00,weatherlink.com 1.10,2013-08-27 17:27:00,
2013-08-27 13:42:00,82.5,69.0,30.02,SW,229,7.0,9.0,63,0.00,,,0.00,weatherlink.com 1.10,2013-08-27 17:42:00,
2013-08-27 13:57:00,82.6,67.0,30.02,SW,233,6.0,7.0,60,0.00,,,0.00,weatherlink.com 1.10,2013-08-27 17:57:00,
2013-08-27 14:12:00,83.2,68.0,30.02,SW,218,5.0,8.0,61,0.00,,,0.00,weatherlink.com 1.10,2013-08-27 18:12:00,
2013-08-27 14:27:00,83.0,69.0,30.01,SW,222,3.0,8.0,63,0.00,,,0.00,weatherlink.com 1.10,2013-08-27 18:27:00,
2013-08-27 14:42:00,83.1,71.0,30.00,SW,226,2.0,8.0,67,0.00,,,0.00,weatherlink.com 1.10,2013-08-27 18:42:00,
2013-08-27 14:57:00,83.4,70.0,30.00,SW,221,5.0,8.0,65,0.00,,,0.00,weatherlink.com 1.10,2013-08-27 18:57:00,
2013-08-27 15:12:00,83.5,70.0,29.99,SW,218,7.0,8.0,64,0.00,,,0.00,weatherlink.com 1.10,2013-08-27 19:12:00,
2013-08-27 15:27:00,82.6,72.0,29.99,SW,227,11.0,13.0,70,0.00,,,0.00,weatherlink.com 1.10,2013-08-27 19:27:00,
2013-08-27 15:42:00,82.2,72.0,29.99,SSW,199,11.0,13.0,71,0.00,,,0.00,weatherlink.com 1.10,2013-08-27 19:42:00,
2013-08-27 15:57:00,82.2,71.0,29.98,SSW,207,9.0,14.0,69,0.00,,,0.00,weatherlink.com 1.10,2013-08-27 19:57:00,
2013-08-27 16:12:00,82.0,72.0,29.98,SW,215,9.0,14.0,72,0.00,,,0.00,weatherlink.com 1.10,2013-08-27 20:12:00,
2013-08-27 16:27:00,81.6,71.0,29.99,SSW,207,10.0,14.0,71,0.00,,,0.00,weatherlink.com 1.10,2013-08-27 20:27:00,
2013-08-27 16:43:00,81.2,72.0,29.98,SSW,201,12.0,15.0,73,0.00,,,0.00,weatherlink.com 1.10,2013-08-27 20:43:00,
2013-08-27 16:58:00,80.7,72.0,29.98,SW,214,12.0,16.0,74,0.00,,,0.00,weatherlink.com 1.10,2013-08-27 20:58:00,
2013-08-27 17:43:00,80.3,72.0,29.98,SW,219,13.0,14.0,75,0.00,,,0.00,weatherlink.com 1.10,2013-08-27 21:43:00,
2013-08-27 17:58:00,80.2,72.0,29.98,SW,226,9.0,15.0,76,0.00,,,0.00,weatherlink.com 1.10,2013-08-27 21:58:00,
2013-08-27 18:13:00,80.0,71.0,29.98,SW,233,10.0,13.0,74,0.00,,,0.00,weatherlink.com 1.10,2013-08-27 22:13:00,
2013-08-27 18:28:00,79.9,71.0,29.98,SW,236,9.0,11.0,75,0.00,,,0.00,weatherlink.com 1.10,2013-08-27 22:28:00,
2013-08-27 18:43:00,79.7,72.0,29.98,SW,221,6.0,12.0,76,0.00,,,0.00,weatherlink.com 1.10,2013-08-27 22:43:00,
2013-08-27 18:58:00,79.4,71.0,29.98,SW,217,10.0,11.0,75,0.00,,,0.00,weatherlink.com 1.10,2013-08-27 22:58:00,
2013-08-27 19:14:00,79.1,71.0,29.99,SW,233,7.0,11.0,76,0.00,,,0.00,weatherlink.com 1.10,2013-08-27 23:14:00,
2013-08-27 19:28:00,78.8,71.0,29.99,SSW,211,6.0,10.0,78,0.00,,,0.00,weatherlink.com 1.10,2013-08-27 23:28:00,
2013-08-27 19:43:00,78.2,70.0,29.99,SW,233,8.0,12.0,77,0.00,,,0.00,weatherlink.com 1.10,2013-08-27 23:43:00,
2013-08-27 19:58:00,78.0,71.0,29.99,SW,229,8.0,10.0,78,0.00,,,0.00,weatherlink.com 1.10,2013-08-27 23:58:00,
2013-08-27 20:13:00,78.0,71.0,29.99,SW,221,9.0,11.0,78,0.00,,,0.00,weatherlink.com 1.10,2013-08-28 00:13:00,
2013-08-27 20:28:00,77.7,71.0,29.99,SW,231,7.0,10.0,80,0.00,,,0.00,weatherlink.com 1.10,2013-08-28 00:28:00,
2013-08-27 20:43:00,77.5,71.0,30.00,SSW,207,7.0,9.0,80,0.00,,,0.00,weatherlink.com 1.10,2013-08-28 00:43:00,
2013-08-27 20:58:00,77.2,70.0,29.99,SW,229,7.0,10.0,79,0.00,,,0.00,weatherlink.com 1.10,2013-08-28 00:58:00,
2013-08-27 21:13:00,77.2,71.0,29.99,SW,226,7.0,9.0,81,0.00,,,0.00,weatherlink.com 1.10,2013-08-28 01:13:00,
2013-08-27 21:28:00,77.2,71.0,30.00,WSW,238,6.0,10.0,80,0.00,,,0.00,weatherlink.com 1.10,2013-08-28 01:28:00,
2013-08-27 21:43:00,77.3,71.0,29.99,SW,215,10.0,10.0,81,0.00,,,0.00,weatherlink.com 1.10,2013-08-28 01:43:00,
2013-08-27 21:58:00,77.1,71.0,29.99,SW,232,7.0,11.0,81,0.00,,,0.00,weatherlink.com 1.10,2013-08-28 01:58:00,
2013-08-27 22:13:00,77.0,71.0,30.00,SW,231,7.0,11.0,81,0.00,,,0.00,weatherlink.com 1.10,2013-08-28 02:13:00,
2013-08-27 22:43:00,76.7,71.0,30.01,SW,233,3.0,8.0,82,0.00,,,0.00,weatherlink.com 1.10,2013-08-28 02:43:00,
2013-08-27 22:58:00,76.6,71.0,30.01,WSW,238,4.0,8.0,82,0.00,,,0.00,weatherlink.com 1.10,2013-08-28 02:58:00,
2013-08-27 23:13:00,76.7,71.0,30.01,SW,236,10.0,10.0,81,0.00,,,0.00,weatherlink.com 1.10,2013-08-28 03:13:00,
2013-08-27 23:28:00,76.8,71.0,30.00,WSW,242,10.0,11.0,81,0.00,,,0.00,weatherlink.com 1.10,2013-08-28 03:28:00,
2013-08-27 23:43:00,76.6,70.0,30.00,WSW,240,8.0,10.0,81,0.00,,,0.00,weatherlink.com 1.10,2013-08-28 03:43:00,
2013-08-27 23:58:00,76.5,71.0,30.00,WSW,240,3.0,8.0,82,0.00,,,0.00,weatherlink.com 1.10,2013-08-28 03:58:00,